Time;durP1;ratioP1;P1;durP2;ratioP2;P2;SDS_P1;SDS_P2;PMS_P1;PMS_P2;Temp;Humidity;BMP_temperature;BMP_pressure;BME280_temperature;BME280_humidity;BME280_pressure;Samples;Min_cycle;Max_cycle;Signal;HPM_P1;HPM_P2
2023/05/21 00:01:39;;;;;;;8.98;4.50;;;14.20;99.90;;;;;;5058803;28;20032;-73
2023/05/21 00:04:06;;;;;;;9.32;4.00;;;14.20;99.90;;;;;;5060432;28;20037;-74
2023/05/21 00:06:34;;;;;;;12.23;4.40;;;14.20;99.90;;;;;;5059439;28;20025;-74
2023/05/21 00:09:03;;;;;;;9.00;4.13;;;14.20;99.90;;;;;;5060650;28;20013;-74
2023/05/21 00:11:30;;;;;;;8.85;4.10;;;14.10;99.90;;;;;;5059989;28;20033;-73
2023/05/21 00:13:55;;;;;;;10.27;4.10;;;14.10;99.90;;;;;;5060233;28;20037;-74
2023/05/21 00:16:22;;;;;;;13.00;4.50;;;14.10;99.90;;;;;;5060400;28;20021;-74
2023/05/21 00:18:53;;;;;;;11.57;4.53;;;14.00;99.90;;;;;;5058522;28;20016;-73
2023/05/21 00:21:21;;;;;;;15.07;4.38;;;14.00;99.90;;;;;;5063015;28;20017;-73
2023/05/21 00:23:48;;;;;;;9.75;4.22;;;13.90;99.90;;;;;;5063002;28;20041;-73
2023/05/21 00:26:14;;;;;;;8.60;4.13;;;13.90;99.90;;;;;;5063223;28;20055;-74
2023/05/21 00:28:40;;;;;;;13.48;4.07;;;13.90;99.90;;;;;;5063307;28;20029;-73
2023/05/21 00:31:05;;;;;;;12.63;4.65;;;13.90;99.90;;;;;;5061309;28;20036;-73
2023/05/21 00:33:31;;;;;;;10.23;4.13;;;13.80;99.90;;;;;;5063436;28;20059;-73
2023/05/21 00:35:56;;;;;;;10.23;4.70;;;13.80;99.90;;;;;;5062962;28;20033;-73
2023/05/21 00:38:23;;;;;;;11.60;5.22;;;13.70;99.90;;;;;;5062659;28;20017;-73
2023/05/21 00:40:49;;;;;;;15.80;4.80;;;13.70;99.90;;;;;;5062770;28;20025;-73
2023/05/21 00:43:15;;;;;;;11.55;4.20;;;13.60;99.90;;;;;;5063407;28;20017;-73
2023/05/21 00:45:43;;;;;;;11.98;4.35;;;13.70;99.90;;;;;;5063180;28;20036;-73
2023/05/21 00:48:10;;;;;;;12.38;4.60;;;13.70;99.90;;;;;;5061247;28;20104;-73
2023/05/21 00:50:38;;;;;;;10.18;4.32;;;13.60;99.90;;;;;;5062166;28;20103;-73
2023/05/21 00:53:08;;;;;;;10.32;4.50;;;13.60;99.90;;;;;;5063499;28;20090;-73
2023/05/21 00:55:35;;;;;;;11.40;4.82;;;13.50;99.90;;;;;;5062596;28;20084;-74
2023/05/21 00:58:03;;;;;;;13.02;4.25;;;13.60;99.90;;;;;;5062185;28;20087;-73
2023/05/21 01:00:31;;;;;;;13.55;4.55;;;13.60;99.90;;;;;;5062732;28;20020;-73
2023/05/21 01:02:57;;;;;;;11.52;4.80;;;13.50;99.90;;;;;;5062634;28;20024;-73
2023/05/21 01:05:23;;;;;;;9.27;4.35;;;13.50;99.90;;;;;;5061443;28;20044;-74
2023/05/21 01:07:48;;;;;;;8.85;4.45;;;13.50;99.90;;;;;;5063276;28;20067;-74
2023/05/21 01:10:14;;;;;;;10.80;5.30;;;13.50;99.90;;;;;;5062148;28;20029;-73
2023/05/21 01:12:42;;;;;;;10.48;4.80;;;13.50;99.90;;;;;;5062955;28;20029;-73
2023/05/21 01:15:09;;;;;;;12.15;4.30;;;13.50;99.90;;;;;;5062357;28;20044;-74
2023/05/21 01:17:35;;;;;;;9.18;4.70;;;13.40;99.90;;;;;;5061747;28;20359;-72
2023/05/21 01:20:08;;;;;;;10.35;4.03;;;13.40;99.90;;;;;;5062881;28;20044;-73
2023/05/21 01:22:35;;;;;;;9.88;4.10;;;13.40;99.90;;;;;;5061825;28;20029;-74
2023/05/21 01:25:01;;;;;;;10.57;4.50;;;13.40;99.90;;;;;;5059843;28;20025;-71
2023/05/21 01:27:27;;;;;;;11.65;4.30;;;13.40;99.90;;;;;;5062775;28;20023;-73
2023/05/21 01:29:53;;;;;;;10.80;4.30;;;13.40;99.90;;;;;;5061182;28;20088;-74
2023/05/21 01:32:39;;;;;;;12.25;4.28;;;13.30;99.90;;;;;;5062409;28;20036;-72
2023/05/21 01:35:08;;;;;;;8.95;4.50;;;13.30;99.90;;;;;;5062082;28;20052;-73
2023/05/21 01:37:51;;;;;;;15.40;4.55;;;13.30;99.90;;;;;;5062310;28;20041;-73
2023/05/21 01:40:33;;;;;;;10.00;4.13;;;13.20;99.90;;;;;;5062280;28;20035;-74
2023/05/21 01:43:00;;;;;;;8.98;4.47;;;13.20;99.90;;;;;;5062089;28;20037;-74
2023/05/21 01:45:30;;;;;;;12.20;4.78;;;13.20;99.90;;;;;;5060576;28;20112;-73
2023/05/21 01:47:56;;;;;;;10.40;4.40;;;13.20;99.90;;;;;;5061793;28;20025;-73
2023/05/21 01:50:23;;;;;;;14.40;4.45;;;13.10;99.90;;;;;;5061888;28;20037;-73
2023/05/21 01:52:54;;;;;;;17.15;4.30;;;13.10;99.90;;;;;;5061019;28;20567;-73
2023/05/21 01:55:23;;;;;;;16.75;4.28;;;13.10;99.90;;;;;;5062168;28;20041;-72
2023/05/21 01:57:51;;;;;;;9.50;4.03;;;13.10;99.90;;;;;;5062251;28;20025;-72
2023/05/21 02:00:17;;;;;;;10.35;4.40;;;13.10;99.90;;;;;;5061131;28;20040;-72
2023/05/21 02:02:43;;;;;;;10.55;4.20;;;13.00;99.90;;;;;;5061354;28;20047;-73
2023/05/21 02:05:08;;;;;;;9.20;4.40;;;13.00;99.90;;;;;;5060327;28;20017;-72
2023/05/21 02:07:36;;;;;;;9.68;4.35;;;13.00;99.90;;;;;;5060887;28;20037;-73
2023/05/21 02:10:02;;;;;;;11.45;4.38;;;13.00;99.90;;;;;;5061608;28;20024;-72
2023/05/21 02:12:28;;;;;;;11.98;4.15;;;13.00;99.90;;;;;;5060452;28;20037;-73
2023/05/21 02:14:55;;;;;;;12.52;4.30;;;12.90;99.90;;;;;;5060337;28;20032;-73
2023/05/21 02:17:23;;;;;;;10.35;4.50;;;12.90;99.90;;;;;;5061769;28;20017;-74
2023/05/21 02:19:49;;;;;;;12.25;4.10;;;12.90;99.90;;;;;;5061336;28;20021;-72
2023/05/21 02:22:14;;;;;;;14.20;4.03;;;12.90;99.90;;;;;;5061701;28;20036;-73
2023/05/21 02:24:40;;;;;;;9.88;4.13;;;12.90;99.90;;;;;;5059270;28;20021;-72
2023/05/21 02:27:09;;;;;;;9.73;4.35;;;12.90;99.90;;;;;;5060077;28;20025;-72
2023/05/21 02:29:35;;;;;;;10.68;4.53;;;12.90;99.90;;;;;;5060740;28;20024;-72
2023/05/21 02:32:01;;;;;;;9.65;4.18;;;12.90;99.90;;;;;;5059832;28;20535;-72
2023/05/21 02:34:29;;;;;;;10.32;4.22;;;12.90;99.90;;;;;;5059707;28;20033;-72
2023/05/21 02:36:55;;;;;;;9.85;4.03;;;12.80;99.90;;;;;;5060558;28;20388;-72
2023/05/21 02:39:21;;;;;;;12.73;3.97;;;12.80;99.90;;;;;;5061267;28;20085;-74
2023/05/21 02:41:47;;;;;;;12.93;4.00;;;12.80;99.90;;;;;;5061658;28;20032;-72
2023/05/21 02:44:13;;;;;;;10.27;4.30;;;12.80;99.90;;;;;;5060445;28;20024;-72
2023/05/21 02:46:39;;;;;;;11.48;4.25;;;12.70;99.90;;;;;;5061079;28;20028;-72
2023/05/21 02:49:05;;;;;;;12.35;4.60;;;12.60;99.90;;;;;;5061111;28;20095;-72
2023/05/21 02:51:30;;;;;;;16.27;4.70;;;12.60;99.90;;;;;;5060675;28;20021;-72
2023/05/21 02:53:56;;;;;;;16.90;4.78;;;12.60;99.90;;;;;;5060946;28;20041;-72
2023/05/21 02:56:22;;;;;;;8.07;3.95;;;12.60;99.90;;;;;;5061897;28;20052;-72
2023/05/21 02:58:47;;;;;;;9.90;4.80;;;12.60;99.90;;;;;;5059360;28;20610;-72
2023/05/21 03:01:13;;;;;;;7.97;3.83;;;12.60;99.90;;;;;;5061176;28;20860;-73
2023/05/21 03:03:39;;;;;;;13.55;4.57;;;12.60;99.90;;;;;;5060761;28;20444;-72
2023/05/21 03:06:05;;;;;;;12.20;4.47;;;12.60;99.90;;;;;;5059086;28;20029;-73
2023/05/21 03:08:31;;;;;;;9.90;4.53;;;12.60;99.90;;;;;;5061164;28;20029;-73
2023/05/21 03:10:57;;;;;;;12.38;4.35;;;12.60;99.90;;;;;;5059673;28;20048;-72
2023/05/21 03:13:22;;;;;;;11.25;4.28;;;12.60;99.90;;;;;;5060506;28;20033;-73
2023/05/21 03:15:48;;;;;;;8.57;4.50;;;12.60;99.90;;;;;;5060113;28;20032;-73
2023/05/21 03:18:14;;;;;;;8.77;4.10;;;12.60;99.90;;;;;;5060810;28;20036;-72
2023/05/21 03:20:45;;;;;;;10.27;4.25;;;12.60;99.90;;;;;;5060748;28;20028;-73
2023/05/21 03:23:12;;;;;;;11.20;4.35;;;12.60;99.90;;;;;;5059753;28;20077;-72
2023/05/21 03:25:38;;;;;;;9.07;4.15;;;12.60;99.90;;;;;;5060436;28;20048;-73
2023/05/21 03:28:05;;;;;;;11.18;4.40;;;12.50;99.90;;;;;;5060357;28;20088;-73
2023/05/21 03:30:31;;;;;;;11.23;4.43;;;12.50;99.90;;;;;;5059752;28;20427;-72
2023/05/21 03:32:57;;;;;;;11.18;4.38;;;12.50;99.90;;;;;;5059150;28;20083;-73
2023/05/21 03:35:22;;;;;;;16.70;4.72;;;12.50;99.90;;;;;;5060523;28;20128;-72
2023/05/21 03:37:48;;;;;;;10.68;4.82;;;12.50;99.90;;;;;;5059936;28;20029;-73
2023/05/21 03:40:13;;;;;;;11.30;4.57;;;12.50;99.90;;;;;;5060632;28;20033;-72
2023/05/21 03:42:39;;;;;;;12.75;4.38;;;12.50;99.90;;;;;;5059035;28;20101;-72
2023/05/21 03:45:05;;;;;;;9.35;4.53;;;12.50;99.90;;;;;;5060299;28;20032;-73
2023/05/21 03:47:31;;;;;;;8.02;4.13;;;12.50;99.90;;;;;;5060673;28;20349;-73
2023/05/21 03:49:57;;;;;;;11.20;4.68;;;12.50;99.90;;;;;;5060253;28;20056;-73
2023/05/21 03:52:22;;;;;;;11.77;4.10;;;12.50;99.90;;;;;;5060918;28;20041;-72
2023/05/21 03:54:48;;;;;;;10.43;3.95;;;12.60;99.90;;;;;;5061873;28;20037;-72
2023/05/21 03:57:13;;;;;;;10.73;3.80;;;12.60;99.90;;;;;;5062984;28;20520;-72
2023/05/21 03:59:39;;;;;;;10.45;4.55;;;12.60;99.90;;;;;;5061191;28;20044;-72
2023/05/21 04:02:05;;;;;;;9.07;3.85;;;12.60;99.90;;;;;;5063178;28;20037;-72
2023/05/21 04:04:32;;;;;;;10.82;4.35;;;12.60;99.90;;;;;;5062546;28;20025;-72
2023/05/21 04:06:58;;;;;;;16.35;4.07;;;12.60;99.90;;;;;;5064100;28;20051;-73
2023/05/21 04:09:24;;;;;;;12.77;4.20;;;12.60;99.90;;;;;;5062657;28;20421;-73
2023/05/21 04:11:49;;;;;;;8.63;3.75;;;12.60;99.90;;;;;;5063826;28;20025;-71
2023/05/21 04:14:15;;;;;;;11.20;3.92;;;12.60;99.90;;;;;;5064158;28;20099;-72
2023/05/21 04:16:42;;;;;;;14.90;4.30;;;12.60;99.90;;;;;;5063852;28;20029;-72
2023/05/21 04:19:08;;;;;;;8.43;3.92;;;12.50;99.90;;;;;;5062948;28;20025;-72
2023/05/21 04:21:35;;;;;;;9.65;4.50;;;12.50;99.90;;;;;;5063784;28;20104;-72
2023/05/21 04:24:00;;;;;;;8.45;3.97;;;12.50;99.90;;;;;;5062252;28;20032;-73
2023/05/21 04:26:26;;;;;;;12.25;4.40;;;12.50;99.90;;;;;;5063885;28;20048;-72
2023/05/21 04:28:53;;;;;;;13.00;3.85;;;12.50;99.90;;;;;;5062888;28;20029;-72
2023/05/21 04:31:19;;;;;;;10.25;4.30;;;12.50;99.90;;;;;;5063005;28;20055;-71
2023/05/21 04:33:44;;;;;;;11.48;3.85;;;12.50;99.90;;;;;;5063706;28;20607;-71
2023/05/21 04:36:11;;;;;;;10.68;3.88;;;12.50;99.90;;;;;;5063682;28;20051;-71
2023/05/21 04:38:37;;;;;;;10.60;4.45;;;12.50;99.90;;;;;;5063027;28;20025;-72
2023/05/21 04:41:03;;;;;;;12.35;4.22;;;12.50;99.90;;;;;;5063084;28;20029;-71
2023/05/21 04:43:29;;;;;;;13.38;4.05;;;12.50;99.90;;;;;;5061822;28;20084;-71
2023/05/21 04:45:55;;;;;;;10.93;4.20;;;12.50;99.90;;;;;;5062061;28;20024;-72
2023/05/21 04:48:23;;;;;;;8.88;4.25;;;12.50;99.90;;;;;;5063448;28;20470;-72
2023/05/21 04:50:49;;;;;;;7.65;3.80;;;12.50;99.90;;;;;;5063320;28;20044;-72
2023/05/21 04:53:15;;;;;;;10.70;4.53;;;12.50;99.90;;;;;;5061141;28;20036;-73
2023/05/21 04:55:41;;;;;;;14.85;4.43;;;12.50;99.90;;;;;;5061921;28;20033;-71
2023/05/21 04:58:10;;;;;;;10.30;3.67;;;12.50;99.90;;;;;;5063058;28;20025;-71
2023/05/21 05:00:36;;;;;;;7.63;4.35;;;12.40;99.90;;;;;;5062221;28;20084;-73
2023/05/21 05:03:02;;;;;;;9.45;3.80;;;12.40;99.90;;;;;;5062570;28;20033;-72
2023/05/21 05:05:28;;;;;;;14.35;4.82;;;12.50;99.90;;;;;;5061167;28;20029;-72
2023/05/21 05:07:55;;;;;;;11.40;4.95;;;12.50;99.90;;;;;;5062458;28;20101;-72
2023/05/21 05:10:20;;;;;;;19.80;4.65;;;12.50;99.90;;;;;;5062476;28;20020;-71
2023/05/21 05:12:47;;;;;;;12.05;3.97;;;12.50;99.90;;;;;;5062482;28;20089;-72
2023/05/21 05:15:13;;;;;;;7.53;3.90;;;12.50;99.90;;;;;;5060547;28;20037;-71
2023/05/21 05:17:38;;;;;;;11.57;3.80;;;12.50;99.90;;;;;;5062518;28;20063;-72
2023/05/21 05:20:09;;;;;;;12.23;3.80;;;12.60;99.90;;;;;;5059096;28;20021;-72
2023/05/21 05:22:35;;;;;;;11.30;4.32;;;12.70;99.90;;;;;;5057175;28;20084;-72
2023/05/21 05:25:00;;;;;;;9.88;3.95;;;12.80;99.90;;;;;;5059093;28;20033;-71
2023/05/21 05:27:26;;;;;;;9.38;4.50;;;12.80;99.90;;;;;;5058331;28;20044;-71
2023/05/21 05:29:52;;;;;;;14.02;4.63;;;12.90;99.90;;;;;;5058648;28;20021;-73
2023/05/21 05:32:17;;;;;;;10.25;4.30;;;12.90;99.90;;;;;;5062777;28;20114;-71
2023/05/21 05:34:45;;;;;;;8.50;4.10;;;13.00;99.90;;;;;;5061859;28;20066;-73
2023/05/21 05:37:10;;;;;;;9.80;4.43;;;13.00;99.90;;;;;;5061357;28;20047;-72
2023/05/21 05:39:36;;;;;;;10.10;4.18;;;13.10;99.90;;;;;;5061077;28;20025;-72
2023/05/21 05:42:03;;;;;;;9.80;4.25;;;13.20;99.90;;;;;;5061525;28;20025;-71
2023/05/21 05:44:28;;;;;;;10.95;4.22;;;13.20;99.90;;;;;;5062332;28;20025;-72
2023/05/21 05:46:54;;;;;;;8.65;4.18;;;13.30;99.90;;;;;;5060736;28;20097;-73
2023/05/21 05:49:20;;;;;;;10.50;4.22;;;13.30;99.90;;;;;;5061923;28;20053;-71
2023/05/21 05:51:45;;;;;;;8.55;4.22;;;13.30;99.90;;;;;;5056234;28;20043;-72
2023/05/21 05:54:11;;;;;;;9.32;4.68;;;13.40;99.90;;;;;;5059497;28;20519;-73
2023/05/21 05:56:36;;;;;;;13.35;5.38;;;13.40;99.90;;;;;;5061982;28;20025;-72
2023/05/21 05:59:02;;;;;;;8.82;4.35;;;13.50;99.90;;;;;;5061979;28;20021;-70
2023/05/21 06:01:27;;;;;;;9.07;4.90;;;13.50;99.90;;;;;;5060513;28;20036;-71
2023/05/21 06:03:54;;;;;;;14.93;4.97;;;13.60;99.90;;;;;;5060642;28;20021;-70
2023/05/21 06:06:19;;;;;;;11.60;5.10;;;13.60;99.90;;;;;;5060728;28;20020;-71
2023/05/21 06:08:45;;;;;;;8.85;4.93;;;13.70;99.90;;;;;;5061356;28;20029;-72
2023/05/21 06:11:11;;;;;;;11.68;4.45;;;13.70;99.90;;;;;;5060548;28;20021;-71
2023/05/21 06:13:36;;;;;;;10.77;4.47;;;13.80;99.90;;;;;;5060930;28;20071;-71
2023/05/21 06:16:02;;;;;;;11.40;5.25;;;13.80;99.90;;;;;;5059820;28;20092;-70
2023/05/21 06:18:28;;;;;;;10.85;4.63;;;13.80;99.90;;;;;;5059477;28;20398;-71
2023/05/21 06:20:54;;;;;;;10.52;4.82;;;13.90;99.90;;;;;;5061720;28;20065;-70
2023/05/21 06:23:19;;;;;;;11.07;5.30;;;13.90;99.90;;;;;;5058991;28;20028;-71
2023/05/21 06:25:45;;;;;;;15.93;5.10;;;13.90;99.90;;;;;;5061793;28;20035;-71
2023/05/21 06:28:11;;;;;;;11.75;4.55;;;13.90;99.90;;;;;;5061518;28;20040;-72
2023/05/21 06:30:36;;;;;;;13.50;5.50;;;14.00;99.90;;;;;;5061150;28;20029;-72
2023/05/21 06:33:02;;;;;;;9.57;5.20;;;14.10;99.90;;;;;;5059497;28;20028;-70
2023/05/21 06:35:27;;;;;;;12.20;5.72;;;14.10;99.90;;;;;;5061048;28;20044;-71
2023/05/21 06:37:53;;;;;;;13.85;5.88;;;14.20;99.90;;;;;;5060311;28;20032;-71
2023/05/21 06:40:19;;;;;;;13.90;5.35;;;14.20;99.90;;;;;;5061393;28;20029;-71
2023/05/21 06:42:45;;;;;;;14.15;5.38;;;14.20;99.90;;;;;;5060631;28;20027;-71
2023/05/21 06:45:11;;;;;;;14.35;5.60;;;14.30;99.90;;;;;;5060811;28;20064;-71
2023/05/21 06:47:36;;;;;;;13.32;5.97;;;14.30;99.90;;;;;;5059735;28;20444;-71
2023/05/21 06:50:02;;;;;;;11.18;5.93;;;14.40;99.90;;;;;;5060764;28;20049;-72
2023/05/21 06:52:27;;;;;;;12.40;6.13;;;14.50;99.90;;;;;;5058605;28;20029;-71
2023/05/21 06:54:53;;;;;;;18.85;6.28;;;14.50;99.90;;;;;;5061116;28;20040;-71
2023/05/21 06:57:19;;;;;;;11.05;6.47;;;14.60;99.90;;;;;;5061040;28;20122;-72
2023/05/21 06:59:44;;;;;;;12.80;6.28;;;14.60;99.90;;;;;;5060667;28;20044;-73
2023/05/21 07:02:10;;;;;;;14.60;6.30;;;14.70;99.90;;;;;;5060923;28;20033;-72
2023/05/21 07:04:35;;;;;;;16.63;6.32;;;14.70;99.90;;;;;;5058131;28;20025;-70
2023/05/21 07:07:03;;;;;;;13.07;6.93;;;14.80;99.90;;;;;;5058733;28;20084;-71
2023/05/21 07:09:29;;;;;;;15.68;7.10;;;14.90;99.90;;;;;;5060284;28;20028;-73
2023/05/21 07:11:55;;;;;;;12.20;6.82;;;14.90;99.90;;;;;;5059218;28;20114;-73
2023/05/21 07:14:23;;;;;;;11.68;6.95;;;15.00;99.90;;;;;;5057238;28;20433;-74
2023/05/21 07:16:49;;;;;;;14.52;7.22;;;15.10;99.90;;;;;;5058866;28;20125;-71
2023/05/21 07:19:14;;;;;;;14.38;7.63;;;15.10;99.90;;;;;;5059293;28;20597;-72
2023/05/21 07:21:41;;;;;;;15.35;8.13;;;15.30;99.90;;;;;;5059005;28;20033;-72
2023/05/21 07:24:06;;;;;;;19.00;8.50;;;15.40;99.90;;;;;;5060330;28;20063;-71
2023/05/21 07:26:32;;;;;;;15.18;6.60;;;15.50;99.90;;;;;;5059224;28;20060;-72
2023/05/21 07:28:57;;;;;;;15.82;8.32;;;15.50;99.90;;;;;;5059868;28;20151;-71
2023/05/21 07:31:24;;;;;;;13.98;8.18;;;15.60;99.90;;;;;;5064650;28;20029;-72
2023/05/21 07:33:49;;;;;;;15.43;7.95;;;15.70;99.90;;;;;;5065068;28;20033;-72
2023/05/21 07:36:15;;;;;;;18.25;8.88;;;15.80;99.90;;;;;;5060838;28;20088;-72
2023/05/21 07:38:40;;;;;;;15.60;8.23;;;15.90;99.90;;;;;;5062821;28;20024;-71
2023/05/21 07:41:06;;;;;;;17.02;8.90;;;16.00;99.90;;;;;;5063875;28;20036;-70
2023/05/21 07:43:32;;;;;;;16.70;9.13;;;16.00;99.90;;;;;;5064086;28;20025;-71
2023/05/21 07:45:57;;;;;;;14.70;7.72;;;16.10;99.90;;;;;;5062213;28;20043;-72
2023/05/21 07:48:23;;;;;;;17.52;9.77;;;16.10;99.90;;;;;;5055478;28;20028;-74
2023/05/21 07:50:51;;;;;;;14.27;8.52;;;16.20;99.90;;;;;;5059390;28;20043;-73
2023/05/21 07:53:17;;;;;;;19.08;9.75;;;16.20;99.90;;;;;;5059760;28;20021;-73
2023/05/21 07:55:46;;;;;;;23.77;9.95;;;16.20;99.90;;;;;;5060419;28;20051;-72
2023/05/21 07:58:15;;;;;;;21.15;9.88;;;16.40;99.90;;;;;;5060435;28;20112;-72
2023/05/21 08:00:45;;;;;;;16.02;9.38;;;16.40;99.90;;;;;;5061546;28;20489;-72
2023/05/21 08:03:14;;;;;;;20.58;11.00;;;16.50;99.90;;;;;;5061186;28;20035;-73
2023/05/21 08:05:41;;;;;;;24.77;11.77;;;16.40;99.90;;;;;;5059901;28;20116;-72
2023/05/21 08:08:06;;;;;;;16.17;10.40;;;16.50;99.90;;;;;;5061136;28;20036;-73
2023/05/21 08:10:32;;;;;;;23.30;11.45;;;16.50;99.90;;;;;;5061503;28;20025;-73
2023/05/21 08:12:57;;;;;;;18.83;10.65;;;16.60;99.90;;;;;;5063698;28;20057;-73
2023/05/21 08:15:23;;;;;;;19.50;11.18;;;16.70;99.90;;;;;;5062630;28;20040;-72
2023/05/21 08:17:48;;;;;;;18.88;11.98;;;16.70;99.90;;;;;;5063218;28;20029;-72
2023/05/21 08:20:14;;;;;;;19.65;11.98;;;16.70;99.90;;;;;;5062208;28;20029;-73
2023/05/21 08:22:40;;;;;;;20.50;11.10;;;16.80;99.90;;;;;;5061687;28;20029;-72
2023/05/21 08:25:07;;;;;;;22.23;11.88;;;16.80;99.90;;;;;;5062927;28;20085;-72
2023/05/21 08:27:32;;;;;;;19.08;11.65;;;16.90;99.90;;;;;;5062641;28;20021;-71
2023/05/21 08:29:58;;;;;;;19.92;11.70;;;17.00;99.90;;;;;;5060353;28;20091;-73
2023/05/21 08:32:24;;;;;;;19.10;12.38;;;17.00;99.90;;;;;;5062137;28;20036;-72
2023/05/21 08:34:49;;;;;;;20.65;12.52;;;17.10;99.90;;;;;;5058552;28;20089;-71
2023/05/21 08:37:17;;;;;;;21.08;12.07;;;17.10;99.90;;;;;;5061742;28;20032;-71
2023/05/21 08:39:42;;;;;;;20.60;12.05;;;17.20;99.90;;;;;;5062869;28;20057;-71
2023/05/21 08:42:28;;;;;;;20.15;12.02;;;17.30;99.90;;;;;;5060256;28;20047;-71
2023/05/21 08:44:59;;;;;;;20.48;12.35;;;17.30;99.90;;;;;;5061936;28;20025;-71
2023/05/21 08:47:30;;;;;;;22.23;13.45;;;17.40;99.90;;;;;;5062208;28;20025;-72
2023/05/21 08:49:56;;;;;;;24.73;13.35;;;17.50;99.90;;;;;;5062423;28;20057;-72
2023/05/21 08:52:22;;;;;;;20.45;12.50;;;17.60;99.90;;;;;;5062547;28;20437;-72
2023/05/21 08:54:49;;;;;;;20.73;13.15;;;17.60;99.90;;;;;;5060718;28;20112;-71
2023/05/21 08:57:17;;;;;;;25.90;13.75;;;17.70;99.90;;;;;;5062359;28;20025;-71
2023/05/21 08:59:43;;;;;;;19.08;12.57;;;17.90;99.90;;;;;;5060994;28;20013;-70
2023/05/21 09:02:12;;;;;;;27.13;14.02;;;17.90;99.90;;;;;;5059462;28;20025;-71
2023/05/21 09:04:40;;;;;;;27.77;16.60;;;18.10;99.90;;;;;;5063045;28;20531;-71
2023/05/21 09:07:09;;;;;;;24.73;15.63;;;18.10;99.90;;;;;;5062429;28;20049;-72
2023/05/21 09:09:56;;;;;;;22.38;14.90;;;18.30;99.90;;;;;;5062882;28;20021;-70
2023/05/21 09:12:24;;;;;;;22.13;15.10;;;18.50;99.90;;;;;;5062275;28;20044;-71
2023/05/21 09:14:50;;;;;;;23.98;15.02;;;18.70;99.90;;;;;;5061614;28;20033;-73
2023/05/21 09:17:16;;;;;;;26.60;15.57;;;18.80;99.90;;;;;;5062081;28;20088;-72
2023/05/21 09:20:10;;;;;;;27.63;15.70;;;19.00;99.90;;;;;;5063175;28;20029;-71
2023/05/21 09:22:40;;;;;;;23.67;14.73;;;19.10;99.90;;;;;;5058408;28;20033;-70
2023/05/21 09:25:09;;;;;;;23.80;15.20;;;19.20;99.90;;;;;;5061473;28;20031;-72
2023/05/21 09:27:35;;;;;;;20.80;14.27;;;19.30;99.90;;;;;;5062047;28;20048;-72
2023/05/21 09:30:02;;;;;;;25.42;16.42;;;19.40;99.90;;;;;;5062917;28;20025;-72
2023/05/21 09:32:28;;;;;;;24.52;15.35;;;19.50;99.90;;;;;;5060750;28;20021;-72
2023/05/21 09:34:53;;;;;;;29.73;16.60;;;19.50;99.90;;;;;;5062098;28;20040;-72
2023/05/21 09:37:19;;;;;;;27.45;16.40;;;19.50;99.90;;;;;;5062923;28;20099;-71
2023/05/21 09:39:46;;;;;;;24.92;15.55;;;19.50;99.90;;;;;;5060638;28;20018;-71
2023/05/21 09:42:12;;;;;;;26.08;16.23;;;19.50;99.90;;;;;;5062698;28;20032;-72
2023/05/21 09:44:38;;;;;;;27.83;17.85;;;19.50;99.90;;;;;;5061272;28;20032;-72
2023/05/21 09:47:04;;;;;;;24.38;16.02;;;19.50;99.90;;;;;;5060545;28;20032;-71
2023/05/21 09:49:30;;;;;;;30.30;16.95;;;19.40;99.90;;;;;;5061397;28;20064;-73
2023/05/21 09:51:56;;;;;;;30.95;17.67;;;19.50;99.90;;;;;;5059853;28;20036;-74
2023/05/21 09:54:23;;;;;;;26.40;17.85;;;19.60;99.90;;;;;;5061663;28;20036;-72
2023/05/21 09:56:51;;;;;;;25.17;17.00;;;19.70;99.90;;;;;;5061504;28;20025;-74
2023/05/21 09:59:18;;;;;;;29.20;17.13;;;19.70;99.90;;;;;;5058811;28;20045;-73
2023/05/21 10:01:44;;;;;;;25.38;16.85;;;19.80;99.90;;;;;;5060442;28;20082;-72
2023/05/21 10:04:10;;;;;;;26.65;15.90;;;20.00;99.90;;;;;;5060684;28;20107;-72
2023/05/21 10:06:42;;;;;;;29.88;18.92;;;20.00;99.90;;;;;;5060487;28;20108;-73
2023/05/21 10:09:14;;;;;;;30.30;16.88;;;20.10;99.90;;;;;;5059338;28;20163;-71
2023/05/21 10:11:46;;;;;;;25.85;16.73;;;20.20;99.90;;;;;;5058278;28;20029;-73
2023/05/21 10:14:19;;;;;;;26.50;17.83;;;20.30;99.90;;;;;;5055183;28;20437;-73
2023/05/21 10:16:46;;;;;;;28.45;16.77;;;20.30;99.90;;;;;;5061114;28;20519;-70
2023/05/21 10:19:14;;;;;;;28.02;16.85;;;20.40;99.90;;;;;;5061417;28;20021;-71
2023/05/21 10:21:40;;;;;;;28.60;18.20;;;20.40;99.90;;;;;;5060685;28;20017;-72
2023/05/21 10:24:08;;;;;;;28.27;16.55;;;20.40;99.90;;;;;;5062559;28;20048;-71
2023/05/21 10:26:34;;;;;;;24.45;17.25;;;20.50;99.90;;;;;;5060375;28;20071;-70
2023/05/21 10:29:01;;;;;;;23.27;16.70;;;20.60;99.90;;;;;;5061875;28;20036;-73
2023/05/21 10:31:28;;;;;;;32.20;17.55;;;20.60;99.90;;;;;;5059556;28;20029;-73
2023/05/21 10:33:55;;;;;;;26.95;17.33;;;20.60;99.90;;;;;;5061948;28;20111;-70
2023/05/21 10:36:20;;;;;;;21.02;15.25;;;20.60;99.90;;;;;;5061903;28;20243;-73
2023/05/21 10:38:46;;;;;;;26.48;16.98;;;20.60;99.90;;;;;;5061418;28;20104;-71
2023/05/21 10:41:16;;;;;;;26.27;17.55;;;20.70;99.90;;;;;;5056141;28;20035;-72
2023/05/21 10:43:50;;;;;;;23.65;16.23;;;20.70;99.90;;;;;;5059011;28;20096;-71
2023/05/21 10:46:40;;;;;;;24.52;16.55;;;20.70;99.90;;;;;;5057072;28;20082;-72
2023/05/21 10:49:24;;;;;;;26.75;16.45;;;20.80;99.90;;;;;;5059040;28;20029;-72
2023/05/21 10:52:20;;;;;;;28.17;18.27;;;20.80;99.90;;;;;;5058892;28;20032;-72
2023/05/21 10:55:06;;;;;;;25.30;17.60;;;20.90;99.90;;;;;;5059059;28;20063;-71
2023/05/21 10:57:50;;;;;;;23.55;17.00;;;21.00;99.90;;;;;;5059262;28;20029;-73
2023/05/21 11:00:19;;;;;;;27.98;18.15;;;21.10;99.90;;;;;;5060893;28;20033;-72
2023/05/21 11:02:50;;;;;;;24.63;16.42;;;21.20;99.90;;;;;;5059789;28;20428;-73
2023/05/21 11:05:33;;;;;;;22.77;16.90;;;21.20;99.90;;;;;;5057060;28;20097;-72
2023/05/21 11:08:00;;;;;;;23.67;16.75;;;21.40;99.90;;;;;;5057735;28;20026;-73
2023/05/21 11:10:39;;;;;;;24.90;17.17;;;21.50;99.90;;;;;;5053285;28;20039;-72
2023/05/21 11:13:09;;;;;;;29.35;18.90;;;21.60;99.90;;;;;;5046785;28;20029;-73
2023/05/21 11:15:57;;;;;;;23.55;18.10;;;21.60;99.90;;;;;;5059330;28;20037;-72
2023/05/21 11:18:35;;;;;;;25.70;16.80;;;21.70;99.90;;;;;;5058708;28;20033;-72
2023/05/21 11:21:10;;;;;;;23.27;16.95;;;21.80;99.90;;;;;;5057902;28;20029;-73
2023/05/21 11:24:02;;;;;;;28.55;17.30;;;21.80;99.90;;;;;;5052224;28;20021;-73
2023/05/21 11:26:48;;;;;;;27.38;17.95;;;21.90;99.90;;;;;;5053768;28;20044;-73
2023/05/21 11:29:15;;;;;;;24.85;16.55;;;21.90;99.90;;;;;;5047178;28;20045;-74
2023/05/21 11:32:02;;;;;;;21.85;16.65;;;21.90;99.90;;;;;;5059382;28;20064;-73
2023/05/21 11:34:38;;;;;;;23.25;16.85;;;22.00;99.90;;;;;;5060562;28;20021;-73
2023/05/21 11:37:16;;;;;;;25.95;17.48;;;22.10;99.90;;;;;;5053790;28;20634;-74
2023/05/21 11:39:43;;;;;;;30.02;17.02;;;22.20;99.90;;;;;;5056395;28;20029;-71
2023/05/21 11:42:08;;;;;;;23.50;16.05;;;22.30;99.90;;;;;;5074393;28;20025;-71
2023/05/21 11:44:47;;;;;;;26.48;18.00;;;22.50;99.90;;;;;;5058546;28;20025;-73
2023/05/21 11:47:15;;;;;;;25.60;16.88;;;22.50;99.90;;;;;;5059249;28;20043;-72
2023/05/21 11:49:41;;;;;;;26.88;17.80;;;22.60;99.90;;;;;;5060133;28;20037;-71
2023/05/21 11:52:08;;;;;;;25.58;16.73;;;22.80;99.90;;;;;;5050439;28;20024;-74
2023/05/21 11:54:39;;;;;;;23.83;15.77;;;22.90;99.90;;;;;;5058063;28;20048;-72
2023/05/21 11:57:06;;;;;;;21.00;16.02;;;23.10;99.90;;;;;;5059557;28;20120;-73
2023/05/21 11:59:33;;;;;;;21.85;16.45;;;23.20;99.90;;;;;;5059349;28;20024;-70
2023/05/21 12:01:58;;;;;;;24.42;16.13;;;23.40;99.90;;;;;;5061177;28;20051;-73
2023/05/21 12:04:35;;;;;;;23.17;16.27;;;23.50;99.90;;;;;;5061145;28;20493;-73
2023/05/21 12:07:03;;;;;;;24.85;16.10;;;23.60;99.90;;;;;;5060219;28;20083;-72
2023/05/21 12:09:29;;;;;;;22.33;16.00;;;23.60;99.90;;;;;;5061229;28;20088;-74
2023/05/21 12:11:55;;;;;;;18.27;14.13;;;23.70;99.90;;;;;;5059697;28;20024;-72
2023/05/21 12:14:20;;;;;;;21.20;16.17;;;23.80;99.90;;;;;;5058671;28;20112;-73
2023/05/21 12:16:46;;;;;;;21.85;15.48;;;23.90;99.90;;;;;;5063488;28;20032;-72
2023/05/21 12:19:16;;;;;;;19.98;15.10;;;23.90;99.90;;;;;;5060421;28;20037;-73
2023/05/21 12:21:42;;;;;;;21.95;14.77;;;24.10;99.90;;;;;;5060446;28;20033;-72
2023/05/21 12:24:07;;;;;;;21.23;15.07;;;24.20;99.90;;;;;;5061207;28;20029;-72
2023/05/21 12:26:34;;;;;;;23.77;15.23;;;24.40;99.90;;;;;;5059990;28;20055;-72
2023/05/21 12:29:01;;;;;;;21.25;15.90;;;24.50;99.90;;;;;;5059672;28;20109;-73
2023/05/21 12:31:29;;;;;;;20.83;15.07;;;24.60;99.90;;;;;;5061157;28;20025;-71
2023/05/21 12:33:55;;;;;;;18.10;14.43;;;24.70;99.90;;;;;;5061548;28;20037;-74
2023/05/21 12:36:30;;;;;;;19.02;15.55;;;24.90;99.90;;;;;;5062547;28;20115;-74
2023/05/21 12:38:59;;;;;;;22.45;15.27;;;24.90;99.90;;;;;;5062233;28;20032;-75